Aeroporto :
LOGIN :

Iscrizione | Disclaimer

   EN    FR    IT 

 










Sommario :    VFR   VFR Marginale   IFR   IFR Intensivo   IFR Molto Intensivo
Visibilità : 
Base nubi : 
>= 8 km
>= 3000ft
5 / 8 km
1000 / 3000 ft
1500m / 5 km
500 / 1000 ft
800 / 1500m
200 / 500 ft
< 800m
< 200 ft
Simboli :   Temporali  Nebbia  Neve Forte  Precipitazioni Forti  Vento > 20 kt
SIGMETs :   Varie  Temporali  Ghiacco  Turbolenza  Onda orograficha  Ceneri Vulcaniche






- Altitudine del aeroporto : 764 ft
- Codice IATA : YEI


LTBR - Yenisehir AB

ULTIMO METAR :
  • 310020Z 27003KT 250V310 9999 FEW035 11/10 Q1016 NOSIG RMK RWY07 31004KT 290V350

METARs OBSOLETI :
  • 302350Z 28002KT 9999 FEW035 11/10 Q1016 NOSIG RMK RWY07 VRB02KT
  • 302320Z 00000KT 9999 FEW035 12/11 Q1017 NOSIG RMK RWY07 00000KT
  • 302250Z 30002KT 9999 SCT035 12/11 Q1017 NOSIG RMK RWY07 31005KT
  • 302220Z 01003KT 9999 SCT030 12/11 Q1017 NOSIG RMK RWY07 34003KT
  • 302150Z 01006KT 9999 SCT030 13/12 Q1017 NOSIG RMK RWY07 02004KT 350V050

TAF TAF LTBR
Valido dal 31 a 00 ore il 01 a 00 ore UTC


302240Z 3100/3124 VRB02KT 9999 FEW035
BECMG 3100/3102 CAVOK
BECMG 3108/3112 SCT035
PROB30
TEMPO 3113/3117 30012KT -SHRA FEW025CB BKN030
BECMG 3118/3121 CAVOK



MetMap, La meteo Aeronautica in un colpo d'occhio ! - Copyright ORBIFLY Dicembre 2007 - Disclaimer

ORBIFLY MET'MAP TEAM :

Programmazione e sviluppo : Alexandra Zaïnal
Concezione : Baudouin d'Aumeries
Aiuto per la programmazione : Marc-Olivier Méhu
Supporto tecnico e logistico : Manuel Goepfert
Aiuto per la traduzione : Arnaldo La Scala

Contatto : metmap@orbifly.com




FONTI E CREDITI :

   NOAA